sensor_id;sensor_type;location;lat;lon;timestamp;temperature;humidity
9943;DHT22;5010;45.080;7.634;2024-02-15T00:00:01;7.30;1.00
9943;DHT22;5010;45.080;7.634;2024-02-15T00:02:29;7.30;1.00
9943;DHT22;5010;45.080;7.634;2024-02-15T00:04:56;7.30;1.00
9943;DHT22;5010;45.080;7.634;2024-02-15T00:07:24;7.30;1.00
9943;DHT22;5010;45.080;7.634;2024-02-15T00:09:52;7.40;1.00
9943;DHT22;5010;45.080;7.634;2024-02-15T00:12:22;7.30;1.00
9943;DHT22;5010;45.080;7.634;2024-02-15T00:14:49;7.30;1.00
9943;DHT22;5010;45.080;7.634;2024-02-15T00:17:17;7.30;1.00
9943;DHT22;5010;45.080;7.634;2024-02-15T00:19:45;7.40;99.90
9943;DHT22;5010;45.080;7.634;2024-02-15T00:22:12;7.40;99.90
9943;DHT22;5010;45.080;7.634;2024-02-15T00:24:40;7.40;1.00
9943;DHT22;5010;45.080;7.634;2024-02-15T00:27:08;7.40;99.90
9943;DHT22;5010;45.080;7.634;2024-02-15T00:29:38;7.40;1.00
9943;DHT22;5010;45.080;7.634;2024-02-15T00:32:06;7.30;1.00
9943;DHT22;5010;45.080;7.634;2024-02-15T00:34:34;7.30;1.00
9943;DHT22;5010;45.080;7.634;2024-02-15T00:37:01;7.30;1.00
9943;DHT22;5010;45.080;7.634;2024-02-15T00:39:29;7.30;1.00
9943;DHT22;5010;45.080;7.634;2024-02-15T00:41:57;7.30;1.00
9943;DHT22;5010;45.080;7.634;2024-02-15T00:44:26;7.30;1.00
9943;DHT22;5010;45.080;7.634;2024-02-15T00:46:55;7.30;1.00
9943;DHT22;5010;45.080;7.634;2024-02-15T00:49:22;7.20;1.00
9943;DHT22;5010;45.080;7.634;2024-02-15T00:51:52;7.20;99.90
9943;DHT22;5010;45.080;7.634;2024-02-15T00:54:19;7.10;1.00
9943;DHT22;5010;45.080;7.634;2024-02-15T00:56:48;7.10;1.00
9943;DHT22;5010;45.080;7.634;2024-02-15T00:59:16;7.10;1.00
9943;DHT22;5010;45.080;7.634;2024-02-15T01:01:44;7.10;1.00
9943;DHT22;5010;45.080;7.634;2024-02-15T01:04:15;7.00;1.00
9943;DHT22;5010;45.080;7.634;2024-02-15T01:06:42;6.90;53.90
9943;DHT22;5010;45.080;7.634;2024-02-15T01:09:10;6.90;73.30
9943;DHT22;5010;45.080;7.634;2024-02-15T01:11:39;6.80;1.00
9943;DHT22;5010;45.080;7.634;2024-02-15T01:14:06;6.90;1.00
9943;DHT22;5010;45.080;7.634;2024-02-15T01:16:35;7.00;1.00
9943;DHT22;5010;45.080;7.634;2024-02-15T01:19:03;7.00;1.00
9943;DHT22;5010;45.080;7.634;2024-02-15T01:21:32;6.90;1.00
9943;DHT22;5010;45.080;7.634;2024-02-15T01:24:00;6.90;1.00
9943;DHT22;5010;45.080;7.634;2024-02-15T01:26:29;6.80;1.00
9943;DHT22;5010;45.080;7.634;2024-02-15T01:28:57;6.70;99.90
9943;DHT22;5010;45.080;7.634;2024-02-15T01:31:24;6.70;10.00
9943;DHT22;5010;45.080;7.634;2024-02-15T01:33:51;6.70;99.90
9943;DHT22;5010;45.080;7.634;2024-02-15T01:36:19;6.60;99.90
9943;DHT22;5010;45.080;7.634;2024-02-15T01:38:48;6.70;99.90
9943;DHT22;5010;45.080;7.634;2024-02-15T01:41:15;6.80;99.90
9943;DHT22;5010;45.080;7.634;2024-02-15T01:43:44;6.80;99.90
9943;DHT22;5010;45.080;7.634;2024-02-15T01:46:10;6.90;99.90
9943;DHT22;5010;45.080;7.634;2024-02-15T01:48:40;6.90;99.90
9943;DHT22;5010;45.080;7.634;2024-02-15T01:51:07;6.80;1.00
9943;DHT22;5010;45.080;7.634;2024-02-15T01:53:37;6.70;14.40
9943;DHT22;5010;45.080;7.634;2024-02-15T01:56:07;6.70;1.00
9943;DHT22;5010;45.080;7.634;2024-02-15T01:58:35;6.70;1.00
9943;DHT22;5010;45.080;7.634;2024-02-15T02:01:03;6.70;1.00
9943;DHT22;5010;45.080;7.634;2024-02-15T02:03:32;6.70;99.90
9943;DHT22;5010;45.080;7.634;2024-02-15T02:06:00;6.80;99.90
9943;DHT22;5010;45.080;7.634;2024-02-15T02:08:29;6.90;1.00
9943;DHT22;5010;45.080;7.634;2024-02-15T02:10:56;7.00;1.00
9943;DHT22;5010;45.080;7.634;2024-02-15T02:13:25;6.90;1.00
9943;DHT22;5010;45.080;7.634;2024-02-15T02:15:53;6.90;1.00
9943;DHT22;5010;45.080;7.634;2024-02-15T02:18:21;6.90;54.20
9943;DHT22;5010;45.080;7.634;2024-02-15T02:20:51;6.90;73.30
9943;DHT22;5010;45.080;7.634;2024-02-15T02:23:21;6.80;1.00
9943;DHT22;5010;45.080;7.634;2024-02-15T02:25:54;6.80;1.00
9943;DHT22;5010;45.080;7.634;2024-02-15T02:28:22;6.80;94.80
9943;DHT22;5010;45.080;7.634;2024-02-15T02:30:50;6.80;8.30
9943;DHT22;5010;45.080;7.634;2024-02-15T02:33:17;6.80;1.00
9943;DHT22;5010;45.080;7.634;2024-02-15T02:35:48;6.70;99.90
9943;DHT22;5010;45.080;7.634;2024-02-15T02:38:16;6.60;99.90
9943;DHT22;5010;45.080;7.634;2024-02-15T02:40:43;6.60;60.50
9943;DHT22;5010;45.080;7.634;2024-02-15T02:43:12;6.60;1.00
9943;DHT22;5010;45.080;7.634;2024-02-15T02:45:40;6.60;99.90
9943;DHT22;5010;45.080;7.634;2024-02-15T02:48:09;6.60;99.90
9943;DHT22;5010;45.080;7.634;2024-02-15T02:50:36;6.60;99.90
9943;DHT22;5010;45.080;7.634;2024-02-15T02:53:04;6.60;99.90
9943;DHT22;5010;45.080;7.634;2024-02-15T02:55:32;6.60;99.90
9943;DHT22;5010;45.080;7.634;2024-02-15T02:57:59;6.60;99.90
9943;DHT22;5010;45.080;7.634;2024-02-15T03:00:28;6.60;99.90
9943;DHT22;5010;45.080;7.634;2024-02-15T03:02:56;6.60;99.90
9943;DHT22;5010;45.080;7.634;2024-02-15T03:05:23;6.60;99.90
9943;DHT22;5010;45.080;7.634;2024-02-15T03:07:51;6.60;99.90
9943;DHT22;5010;45.080;7.634;2024-02-15T03:10:19;6.60;99.90
9943;DHT22;5010;45.080;7.634;2024-02-15T03:12:46;6.70;99.90
9943;DHT22;5010;45.080;7.634;2024-02-15T03:15:14;6.70;99.90
9943;DHT22;5010;45.080;7.634;2024-02-15T03:17:45;6.70;99.90
9943;DHT22;5010;45.080;7.634;2024-02-15T03:20:13;6.70;53.70
9943;DHT22;5010;45.080;7.634;2024-02-15T03:22:51;6.70;99.90
9943;DHT22;5010;45.080;7.634;2024-02-15T03:25:19;6.60;99.90
9943;DHT22;5010;45.080;7.634;2024-02-15T03:27:49;6.60;99.90
9943;DHT22;5010;45.080;7.634;2024-02-15T03:30:18;6.60;99.90
9943;DHT22;5010;45.080;7.634;2024-02-15T03:32:48;6.60;1.00
9943;DHT22;5010;45.080;7.634;2024-02-15T03:35:17;6.70;1.00
9943;DHT22;5010;45.080;7.634;2024-02-15T03:37:45;6.70;1.00
9943;DHT22;5010;45.080;7.634;2024-02-15T03:40:13;6.70;1.00
9943;DHT22;5010;45.080;7.634;2024-02-15T03:42:41;6.70;53.90
9943;DHT22;5010;45.080;7.634;2024-02-15T03:45:09;6.70;99.50
9943;DHT22;5010;45.080;7.634;2024-02-15T03:47:37;6.60;54.10
9943;DHT22;5010;45.080;7.634;2024-02-15T03:50:08;6.60;99.90
9943;DHT22;5010;45.080;7.634;2024-02-15T03:52:36;6.70;1.00
9943;DHT22;5010;45.080;7.634;2024-02-15T03:55:05;6.80;1.00
9943;DHT22;5010;45.080;7.634;2024-02-15T03:57:33;6.90;1.00
9943;DHT22;5010;45.080;7.634;2024-02-15T04:00:01;6.90;1.00
9943;DHT22;5010;45.080;7.634;2024-02-15T04:02:30;6.90;1.00
9943;DHT22;5010;45.080;7.634;2024-02-15T04:04:57;6.80;1.00
9943;DHT22;5010;45.080;7.634;2024-02-15T04:07:26;6.80;99.90
9943;DHT22;5010;45.080;7.634;2024-02-15T04:09:54;6.70;99.90
9943;DHT22;5010;45.080;7.634;2024-02-15T04:12:22;6.70;99.90
9943;DHT22;5010;45.080;7.634;2024-02-15T04:14:49;6.60;99.90
9943;DHT22;5010;45.080;7.634;2024-02-15T04:17:17;6.60;99.90
9943;DHT22;5010;45.080;7.634;2024-02-15T04:19:48;6.60;1.00
9943;DHT22;5010;45.080;7.634;2024-02-15T04:22:16;6.60;1.00
9943;DHT22;5010;45.080;7.634;2024-02-15T04:24:45;6.60;99.90
9943;DHT22;5010;45.080;7.634;2024-02-15T04:27:13;6.60;99.90
9943;DHT22;5010;45.080;7.634;2024-02-15T04:29:41;6.60;99.90
9943;DHT22;5010;45.080;7.634;2024-02-15T04:32:10;6.60;99.90
9943;DHT22;5010;45.080;7.634;2024-02-15T04:34:37;6.60;99.90
9943;DHT22;5010;45.080;7.634;2024-02-15T04:37:05;6.60;99.90
9943;DHT22;5010;45.080;7.634;2024-02-15T04:39:33;6.60;99.90
9943;DHT22;5010;45.080;7.634;2024-02-15T04:42:04;6.70;99.90
9943;DHT22;5010;45.080;7.634;2024-02-15T04:44:32;6.80;1.00
9943;DHT22;5010;45.080;7.634;2024-02-15T04:47:01;6.90;1.00
9943;DHT22;5010;45.080;7.634;2024-02-15T04:49:29;6.90;1.00
9943;DHT22;5010;45.080;7.634;2024-02-15T04:51:57;6.90;1.00
9943;DHT22;5010;45.080;7.634;2024-02-15T04:54:24;6.90;1.00
9943;DHT22;5010;45.080;7.634;2024-02-15T04:56:52;6.90;1.00
9943;DHT22;5010;45.080;7.634;2024-02-15T04:59:22;6.80;99.90
9943;DHT22;5010;45.080;7.634;2024-02-15T05:01:57;6.80;99.90
9943;DHT22;5010;45.080;7.634;2024-02-15T05:04:28;6.80;99.90
9943;DHT22;5010;45.080;7.634;2024-02-15T05:06:55;6.90;99.90
9943;DHT22;5010;45.080;7.634;2024-02-15T05:09:23;6.90;99.90
9943;DHT22;5010;45.080;7.634;2024-02-15T05:11:51;6.90;99.90
9943;DHT22;5010;45.080;7.634;2024-02-15T05:14:18;6.90;1.00
9943;DHT22;5010;45.080;7.634;2024-02-15T05:16:48;6.90;1.00
9943;DHT22;5010;45.080;7.634;2024-02-15T05:19:16;6.90;99.90
9943;DHT22;5010;45.080;7.634;2024-02-15T05:21:44;6.80;99.90
9943;DHT22;5010;45.080;7.634;2024-02-15T05:24:13;6.80;1.00
9943;DHT22;5010;45.080;7.634;2024-02-15T05:26:41;6.90;1.00
9943;DHT22;5010;45.080;7.634;2024-02-15T05:29:10;7.00;53.90
9943;DHT22;5010;45.080;7.634;2024-02-15T05:31:37;7.00;7.60
9943;DHT22;5010;45.080;7.634;2024-02-15T05:34:07;7.00;1.00
9943;DHT22;5010;45.080;7.634;2024-02-15T05:36:37;7.00;1.00
9943;DHT22;5010;45.080;7.634;2024-02-15T05:39:05;7.00;99.90
9943;DHT22;5010;45.080;7.634;2024-02-15T05:41:33;7.10;1.00
9943;DHT22;5010;45.080;7.634;2024-02-15T05:44:01;7.10;1.00
9943;DHT22;5010;45.080;7.634;2024-02-15T05:46:30;7.10;1.00
9943;DHT22;5010;45.080;7.634;2024-02-15T05:48:59;7.10;1.00
9943;DHT22;5010;45.080;7.634;2024-02-15T05:51:29;7.10;1.00
9943;DHT22;5010;45.080;7.634;2024-02-15T05:53:57;7.20;84.50
9943;DHT22;5010;45.080;7.634;2024-02-15T05:56:25;7.10;99.90
9943;DHT22;5010;45.080;7.634;2024-02-15T05:58:55;7.00;1.00
9943;DHT22;5010;45.080;7.634;2024-02-15T06:01:23;7.00;1.00
9943;DHT22;5010;45.080;7.634;2024-02-15T06:03:50;6.90;1.00
9943;DHT22;5010;45.080;7.634;2024-02-15T06:06:20;6.80;1.00
9943;DHT22;5010;45.080;7.634;2024-02-15T06:08:50;6.80;99.90
9943;DHT22;5010;45.080;7.634;2024-02-15T06:11:19;6.70;99.90
9943;DHT22;5010;45.080;7.634;2024-02-15T06:13:47;6.70;99.90
9943;DHT22;5010;45.080;7.634;2024-02-15T06:16:15;6.70;99.90
9943;DHT22;5010;45.080;7.634;2024-02-15T06:18:42;6.70;1.00
9943;DHT22;5010;45.080;7.634;2024-02-15T06:21:10;6.70;1.00
9943;DHT22;5010;45.080;7.634;2024-02-15T06:23:37;6.70;1.00
9943;DHT22;5010;45.080;7.634;2024-02-15T06:26:06;6.70;1.00
9943;DHT22;5010;45.080;7.634;2024-02-15T06:28:34;6.70;1.00
9943;DHT22;5010;45.080;7.634;2024-02-15T06:31:18;6.70;1.00
9943;DHT22;5010;45.080;7.634;2024-02-15T06:34:02;6.70;99.90
9943;DHT22;5010;45.080;7.634;2024-02-15T06:36:49;6.70;99.90
9943;DHT22;5010;45.080;7.634;2024-02-15T06:39:34;6.70;1.00
9943;DHT22;5010;45.080;7.634;2024-02-15T06:42:13;6.60;99.90
9943;DHT22;5010;45.080;7.634;2024-02-15T06:44:42;6.70;99.90
9943;DHT22;5010;45.080;7.634;2024-02-15T06:47:10;6.70;99.90
9943;DHT22;5010;45.080;7.634;2024-02-15T06:49:38;6.80;1.00
9943;DHT22;5010;45.080;7.634;2024-02-15T06:52:07;6.90;1.00
9943;DHT22;5010;45.080;7.634;2024-02-15T06:54:34;7.00;1.00
9943;DHT22;5010;45.080;7.634;2024-02-15T06:57:03;7.00;1.00
9943;DHT22;5010;45.080;7.634;2024-02-15T06:59:32;7.00;99.90
9943;DHT22;5010;45.080;7.634;2024-02-15T07:02:01;7.10;99.90
9943;DHT22;5010;45.080;7.634;2024-02-15T07:04:31;7.10;99.90
9943;DHT22;5010;45.080;7.634;2024-02-15T07:06:59;7.20;99.90
9943;DHT22;5010;45.080;7.634;2024-02-15T07:09:28;7.40;99.90
9943;DHT22;5010;45.080;7.634;2024-02-15T07:11:57;7.40;99.90
9943;DHT22;5010;45.080;7.634;2024-02-15T07:14:25;7.50;99.90
9943;DHT22;5010;45.080;7.634;2024-02-15T07:16:55;7.50;13.60
9943;DHT22;5010;45.080;7.634;2024-02-15T07:19:24;7.50;1.00
9943;DHT22;5010;45.080;7.634;2024-02-15T07:21:53;7.50;99.90
9943;DHT22;5010;45.080;7.634;2024-02-15T07:24:22;7.40;42.40
9943;DHT22;5010;45.080;7.634;2024-02-15T07:26:52;7.50;15.60
9943;DHT22;5010;45.080;7.634;2024-02-15T07:29:21;7.50;99.90
9943;DHT22;5010;45.080;7.634;2024-02-15T07:31:49;7.50;99.90
9943;DHT22;5010;45.080;7.634;2024-02-15T07:34:18;7.60;1.00
9943;DHT22;5010;45.080;7.634;2024-02-15T07:36:46;7.60;1.00
9943;DHT22;5010;45.080;7.634;2024-02-15T07:39:13;7.70;1.00
9943;DHT22;5010;45.080;7.634;2024-02-15T07:41:49;7.80;1.00
9943;DHT22;5010;45.080;7.634;2024-02-15T07:44:16;7.90;1.00
9943;DHT22;5010;45.080;7.634;2024-02-15T07:46:45;8.00;99.90
9943;DHT22;5010;45.080;7.634;2024-02-15T07:49:13;8.10;17.70
9943;DHT22;5010;45.080;7.634;2024-02-15T07:51:43;8.10;99.90
9943;DHT22;5010;45.080;7.634;2024-02-15T07:54:11;8.20;1.00
9943;DHT22;5010;45.080;7.634;2024-02-15T07:56:39;8.30;60.50
9943;DHT22;5010;45.080;7.634;2024-02-15T07:59:07;8.40;99.90
9943;DHT22;5010;45.080;7.634;2024-02-15T08:01:34;8.50;99.90
9943;DHT22;5010;45.080;7.634;2024-02-15T08:04:02;8.50;1.00
9943;DHT22;5010;45.080;7.634;2024-02-15T08:06:30;8.50;54.70
9943;DHT22;5010;45.080;7.634;2024-02-15T08:09:00;8.50;1.00
9943;DHT22;5010;45.080;7.634;2024-02-15T08:11:30;8.60;99.90
9943;DHT22;5010;45.080;7.634;2024-02-15T08:13:58;8.70;99.90
9943;DHT22;5010;45.080;7.634;2024-02-15T08:16:26;8.80;1.00
9943;DHT22;5010;45.080;7.634;2024-02-15T08:18:54;8.90;99.90
9943;DHT22;5010;45.080;7.634;2024-02-15T08:21:25;9.00;1.00
9943;DHT22;5010;45.080;7.634;2024-02-15T08:23:55;9.10;99.90
9943;DHT22;5010;45.080;7.634;2024-02-15T08:26:24;9.20;1.00
9943;DHT22;5010;45.080;7.634;2024-02-15T08:28:51;9.20;1.00
9943;DHT22;5010;45.080;7.634;2024-02-15T08:31:21;9.20;1.00
9943;DHT22;5010;45.080;7.634;2024-02-15T08:33:49;9.20;1.00
9943;DHT22;5010;45.080;7.634;2024-02-15T08:36:16;9.20;1.00
9943;DHT22;5010;45.080;7.634;2024-02-15T08:38:44;9.30;99.90
9943;DHT22;5010;45.080;7.634;2024-02-15T08:41:12;9.50;99.90
9943;DHT22;5010;45.080;7.634;2024-02-15T08:43:41;9.60;1.00
9943;DHT22;5010;45.080;7.634;2024-02-15T08:46:09;9.80;1.00
9943;DHT22;5010;45.080;7.634;2024-02-15T08:48:37;9.90;99.90
9943;DHT22;5010;45.080;7.634;2024-02-15T08:51:05;10.10;1.00
9943;DHT22;5010;45.080;7.634;2024-02-15T08:53:34;10.20;99.90
9943;DHT22;5010;45.080;7.634;2024-02-15T08:56:03;10.30;1.00
9943;DHT22;5010;45.080;7.634;2024-02-15T08:58:30;10.40;1.00
9943;DHT22;5010;45.080;7.634;2024-02-15T09:01:00;10.40;1.00
9943;DHT22;5010;45.080;7.634;2024-02-15T09:03:28;10.50;99.90
9943;DHT22;5010;45.080;7.634;2024-02-15T09:05:56;10.60;1.00
9943;DHT22;5010;45.080;7.634;2024-02-15T09:08:32;10.70;1.00
9943;DHT22;5010;45.080;7.634;2024-02-15T09:11:04;10.70;1.00
9943;DHT22;5010;45.080;7.634;2024-02-15T09:13:31;10.70;99.90
9943;DHT22;5010;45.080;7.634;2024-02-15T09:16:05;10.70;99.90
9943;DHT22;5010;45.080;7.634;2024-02-15T09:18:33;10.70;1.00
9943;DHT22;5010;45.080;7.634;2024-02-15T09:21:01;10.70;1.00
9943;DHT22;5010;45.080;7.634;2024-02-15T09:23:31;10.80;99.90
9943;DHT22;5010;45.080;7.634;2024-02-15T09:25:59;10.80;1.00
9943;DHT22;5010;45.080;7.634;2024-02-15T09:28:27;10.90;39.80
9943;DHT22;5010;45.080;7.634;2024-02-15T09:30:55;11.00;99.90
9943;DHT22;5010;45.080;7.634;2024-02-15T09:33:27;11.10;1.00
9943;DHT22;5010;45.080;7.634;2024-02-15T09:35:55;11.20;99.90
9943;DHT22;5010;45.080;7.634;2024-02-15T09:38:23;11.20;1.00
9943;DHT22;5010;45.080;7.634;2024-02-15T09:40:51;11.30;99.90
9943;DHT22;5010;45.080;7.634;2024-02-15T09:43:20;11.40;1.00
9943;DHT22;5010;45.080;7.634;2024-02-15T09:45:52;11.40;1.00
9943;DHT22;5010;45.080;7.634;2024-02-15T09:48:25;11.50;1.00
9943;DHT22;5010;45.080;7.634;2024-02-15T09:50:54;11.60;99.90
9943;DHT22;5010;45.080;7.634;2024-02-15T09:53:23;11.60;99.90
9943;DHT22;5010;45.080;7.634;2024-02-15T09:55:53;11.70;1.00
9943;DHT22;5010;45.080;7.634;2024-02-15T09:58:24;11.70;1.00
9943;DHT22;5010;45.080;7.634;2024-02-15T10:00:52;11.80;1.00
9943;DHT22;5010;45.080;7.634;2024-02-15T10:03:20;11.80;51.10
9943;DHT22;5010;45.080;7.634;2024-02-15T10:05:49;11.90;99.90
9943;DHT22;5010;45.080;7.634;2024-02-15T10:08:18;11.90;1.00
9943;DHT22;5010;45.080;7.634;2024-02-15T10:10:47;11.90;99.90
9943;DHT22;5010;45.080;7.634;2024-02-15T10:13:15;11.90;1.00
9943;DHT22;5010;45.080;7.634;2024-02-15T10:15:45;11.80;1.00
9943;DHT22;5010;45.080;7.634;2024-02-15T10:18:13;11.70;99.90
9943;DHT22;5010;45.080;7.634;2024-02-15T10:20:41;11.70;1.00
9943;DHT22;5010;45.080;7.634;2024-02-15T10:23:10;11.90;1.00
9943;DHT22;5010;45.080;7.634;2024-02-15T10:25:40;12.00;99.90
9943;DHT22;5010;45.080;7.634;2024-02-15T10:28:09;12.10;1.00
9943;DHT22;5010;45.080;7.634;2024-02-15T10:30:37;12.50;1.00
9943;DHT22;5010;45.080;7.634;2024-02-15T10:33:06;12.90;1.00
9943;DHT22;5010;45.080;7.634;2024-02-15T10:35:34;13.30;99.90
9943;DHT22;5010;45.080;7.634;2024-02-15T10:38:06;13.70;1.00
9943;DHT22;5010;45.080;7.634;2024-02-15T10:40:35;13.90;1.00
9943;DHT22;5010;45.080;7.634;2024-02-15T10:43:05;14.10;99.90
9943;DHT22;5010;45.080;7.634;2024-02-15T10:45:34;14.20;99.90
9943;DHT22;5010;45.080;7.634;2024-02-15T10:48:03;14.30;99.90
9943;DHT22;5010;45.080;7.634;2024-02-15T10:50:32;14.70;99.90
9943;DHT22;5010;45.080;7.634;2024-02-15T10:53:00;15.00;95.40
9943;DHT22;5010;45.080;7.634;2024-02-15T10:55:40;15.10;89.10
9943;DHT22;5010;45.080;7.634;2024-02-15T10:58:09;15.20;34.30
9943;DHT22;5010;45.080;7.634;2024-02-15T11:00:39;15.20;23.70
9943;DHT22;5010;45.080;7.634;2024-02-15T11:03:12;15.30;44.60
9943;DHT22;5010;45.080;7.634;2024-02-15T11:05:43;15.20;35.70
9943;DHT22;5010;45.080;7.634;2024-02-15T11:08:12;15.10;69.00
9943;DHT22;5010;45.080;7.634;2024-02-15T11:10:40;15.00;1.00
9943;DHT22;5010;45.080;7.634;2024-02-15T11:13:11;14.70;1.00
9943;DHT22;5010;45.080;7.634;2024-02-15T11:15:46;14.60;46.40
9943;DHT22;5010;45.080;7.634;2024-02-15T11:18:44;14.50;91.90
9943;DHT22;5010;45.080;7.634;2024-02-15T11:21:15;14.70;95.40
9943;DHT22;5010;45.080;7.634;2024-02-15T11:23:44;14.80;99.90
9943;DHT22;5010;45.080;7.634;2024-02-15T11:26:44;14.70;1.00
9943;DHT22;5010;45.080;7.634;2024-02-15T11:32:40;14.90;99.90
9943;DHT22;5010;45.080;7.634;2024-02-15T11:35:11;15.10;99.90
9943;DHT22;5010;45.080;7.634;2024-02-15T11:37:53;15.30;89.10
9943;DHT22;5010;45.080;7.634;2024-02-15T11:40:22;15.30;60.60
9943;DHT22;5010;45.080;7.634;2024-02-15T11:42:50;15.20;99.90
9943;DHT22;5010;45.080;7.634;2024-02-15T11:45:19;15.10;71.70
9943;DHT22;5010;45.080;7.634;2024-02-15T11:47:52;14.90;84.90
9943;DHT22;5010;45.080;7.634;2024-02-15T11:50:22;14.80;92.80
9943;DHT22;5010;45.080;7.634;2024-02-15T11:52:51;14.70;99.90
9943;DHT22;5010;45.080;7.634;2024-02-15T11:55:20;14.60;99.90
9943;DHT22;5010;45.080;7.634;2024-02-15T11:57:57;14.50;99.90
9943;DHT22;5010;45.080;7.634;2024-02-15T12:00:30;14.40;99.90
9943;DHT22;5010;45.080;7.634;2024-02-15T12:03:18;14.40;99.90
9943;DHT22;5010;45.080;7.634;2024-02-15T12:06:03;14.30;99.90
9943;DHT22;5010;45.080;7.634;2024-02-15T12:08:49;14.20;99.90
9943;DHT22;5010;45.080;7.634;2024-02-15T12:11:34;14.10;99.90
9943;DHT22;5010;45.080;7.634;2024-02-15T12:14:19;14.00;99.90
9943;DHT22;5010;45.080;7.634;2024-02-15T12:17:04;14.00;99.90
9943;DHT22;5010;45.080;7.634;2024-02-15T12:19:52;14.00;99.90
9943;DHT22;5010;45.080;7.634;2024-02-15T12:22:23;13.90;99.90
9943;DHT22;5010;45.080;7.634;2024-02-15T12:24:56;14.00;99.90
9943;DHT22;5010;45.080;7.634;2024-02-15T12:27:24;14.00;99.90
9943;DHT22;5010;45.080;7.634;2024-02-15T12:29:54;13.90;99.90
9943;DHT22;5010;45.080;7.634;2024-02-15T12:32:23;13.90;1.00
9943;DHT22;5010;45.080;7.634;2024-02-15T12:35:08;13.80;1.00
9943;DHT22;5010;45.080;7.634;2024-02-15T12:37:37;13.70;1.00
9943;DHT22;5010;45.080;7.634;2024-02-15T12:40:17;13.60;1.00
9943;DHT22;5010;45.080;7.634;2024-02-15T12:42:46;13.50;1.00
9943;DHT22;5010;45.080;7.634;2024-02-15T12:45:17;13.50;1.00
9943;DHT22;5010;45.080;7.634;2024-02-15T12:47:47;13.50;1.00
9943;DHT22;5010;45.080;7.634;2024-02-15T12:50:19;13.50;1.00
9943;DHT22;5010;45.080;7.634;2024-02-15T12:52:48;13.40;1.00
9943;DHT22;5010;45.080;7.634;2024-02-15T12:55:17;13.40;1.00
9943;DHT22;5010;45.080;7.634;2024-02-15T12:57:47;13.30;1.00
9943;DHT22;5010;45.080;7.634;2024-02-15T13:00:18;13.40;1.00
9943;DHT22;5010;45.080;7.634;2024-02-15T13:02:47;13.50;1.00
9943;DHT22;5010;45.080;7.634;2024-02-15T13:05:18;13.50;1.00
9943;DHT22;5010;45.080;7.634;2024-02-15T13:07:46;13.60;1.00
9943;DHT22;5010;45.080;7.634;2024-02-15T13:10:15;13.60;1.00
9943;DHT22;5010;45.080;7.634;2024-02-15T13:12:43;13.70;1.00
9943;DHT22;5010;45.080;7.634;2024-02-15T13:15:12;13.70;1.00
9943;DHT22;5010;45.080;7.634;2024-02-15T13:17:43;13.70;1.00
9943;DHT22;5010;45.080;7.634;2024-02-15T13:20:12;13.80;1.00
9943;DHT22;5010;45.080;7.634;2024-02-15T13:22:42;13.90;1.00
9943;DHT22;5010;45.080;7.634;2024-02-15T13:25:10;13.90;1.00
9943;DHT22;5010;45.080;7.634;2024-02-15T13:27:39;13.90;1.00
9943;DHT22;5010;45.080;7.634;2024-02-15T13:30:10;13.80;1.00
9943;DHT22;5010;45.080;7.634;2024-02-15T13:32:39;13.80;1.00
9943;DHT22;5010;45.080;7.634;2024-02-15T13:35:09;13.80;1.00
9943;DHT22;5010;45.080;7.634;2024-02-15T13:37:47;13.80;1.00
9943;DHT22;5010;45.080;7.634;2024-02-15T13:40:15;13.80;1.00
9943;DHT22;5010;45.080;7.634;2024-02-15T13:42:43;13.70;15.20
9943;DHT22;5010;45.080;7.634;2024-02-15T13:45:16;13.80;35.30
9943;DHT22;5010;45.080;7.634;2024-02-15T13:47:47;14.00;72.30
9943;DHT22;5010;45.080;7.634;2024-02-15T13:50:15;14.20;12.50
9943;DHT22;5010;45.080;7.634;2024-02-15T13:52:45;14.30;1.00
9943;DHT22;5010;45.080;7.634;2024-02-15T13:55:13;14.40;1.00
9943;DHT22;5010;45.080;7.634;2024-02-15T13:57:42;14.30;1.00
9943;DHT22;5010;45.080;7.634;2024-02-15T14:00:12;14.20;1.00
9943;DHT22;5010;45.080;7.634;2024-02-15T14:02:48;14.20;42.50
9943;DHT22;5010;45.080;7.634;2024-02-15T14:05:16;14.30;1.00
9943;DHT22;5010;45.080;7.634;2024-02-15T14:07:49;14.40;1.00
9943;DHT22;5010;45.080;7.634;2024-02-15T14:10:18;14.70;1.00
9943;DHT22;5010;45.080;7.634;2024-02-15T14:12:47;14.90;1.00
9943;DHT22;5010;45.080;7.634;2024-02-15T14:15:15;15.00;1.00
9943;DHT22;5010;45.080;7.634;2024-02-15T14:17:44;15.10;1.00
9943;DHT22;5010;45.080;7.634;2024-02-15T14:20:12;15.20;1.00
9943;DHT22;5010;45.080;7.634;2024-02-15T14:22:41;15.30;99.90
9943;DHT22;5010;45.080;7.634;2024-02-15T14:25:11;15.30;1.00
9943;DHT22;5010;45.080;7.634;2024-02-15T14:27:39;15.20;99.90
9943;DHT22;5010;45.080;7.634;2024-02-15T14:30:09;15.00;99.90
9943;DHT22;5010;45.080;7.634;2024-02-15T14:32:54;14.70;99.90
9943;DHT22;5010;45.080;7.634;2024-02-15T14:35:31;14.40;1.00
9943;DHT22;5010;45.080;7.634;2024-02-15T14:38:02;14.30;1.00
9943;DHT22;5010;45.080;7.634;2024-02-15T14:40:35;14.20;1.00
9943;DHT22;5010;45.080;7.634;2024-02-15T14:43:03;14.20;1.00
9943;DHT22;5010;45.080;7.634;2024-02-15T14:45:32;14.20;1.00
9943;DHT22;5010;45.080;7.634;2024-02-15T14:48:00;14.30;1.00
9943;DHT22;5010;45.080;7.634;2024-02-15T14:50:29;14.30;1.00
9943;DHT22;5010;45.080;7.634;2024-02-15T14:52:57;14.40;1.00
9943;DHT22;5010;45.080;7.634;2024-02-15T14:55:24;14.40;1.00
9943;DHT22;5010;45.080;7.634;2024-02-15T14:57:54;14.40;1.00
9943;DHT22;5010;45.080;7.634;2024-02-15T15:00:21;14.40;1.00
9943;DHT22;5010;45.080;7.634;2024-02-15T15:02:51;14.60;1.00
9943;DHT22;5010;45.080;7.634;2024-02-15T15:05:19;14.70;1.00
9943;DHT22;5010;45.080;7.634;2024-02-15T15:08:05;14.70;1.00
9943;DHT22;5010;45.080;7.634;2024-02-15T15:10:49;14.80;1.00
9943;DHT22;5010;45.080;7.634;2024-02-15T15:13:36;14.70;1.00
9943;DHT22;5010;45.080;7.634;2024-02-15T15:16:04;14.40;1.00
9943;DHT22;5010;45.080;7.634;2024-02-15T15:18:33;14.30;1.00
9943;DHT22;5010;45.080;7.634;2024-02-15T15:21:01;14.10;1.00
9943;DHT22;5010;45.080;7.634;2024-02-15T15:23:29;14.00;1.00
9943;DHT22;5010;45.080;7.634;2024-02-15T15:25:57;13.90;1.00
9943;DHT22;5010;45.080;7.634;2024-02-15T15:28:25;13.80;1.00
9943;DHT22;5010;45.080;7.634;2024-02-15T15:30:54;13.60;1.00
9943;DHT22;5010;45.080;7.634;2024-02-15T15:33:22;13.50;99.90
9943;DHT22;5010;45.080;7.634;2024-02-15T15:35:50;13.40;1.00
9943;DHT22;5010;45.080;7.634;2024-02-15T15:38:19;13.30;99.90
9943;DHT22;5010;45.080;7.634;2024-02-15T15:40:47;13.20;99.90
9943;DHT22;5010;45.080;7.634;2024-02-15T15:43:17;13.30;99.90
9943;DHT22;5010;45.080;7.634;2024-02-15T15:45:45;13.20;99.90
9943;DHT22;5010;45.080;7.634;2024-02-15T15:48:15;13.20;1.00
9943;DHT22;5010;45.080;7.634;2024-02-15T15:50:42;13.20;99.90
9943;DHT22;5010;45.080;7.634;2024-02-15T15:53:10;13.10;99.90
9943;DHT22;5010;45.080;7.634;2024-02-15T15:55:38;13.10;99.90
9943;DHT22;5010;45.080;7.634;2024-02-15T15:58:06;13.10;1.00
9943;DHT22;5010;45.080;7.634;2024-02-15T16:00:34;13.20;1.00
9943;DHT22;5010;45.080;7.634;2024-02-15T16:03:02;13.20;1.00
9943;DHT22;5010;45.080;7.634;2024-02-15T16:05:32;13.10;74.50
9943;DHT22;5010;45.080;7.634;2024-02-15T16:08:00;13.10;99.90
9943;DHT22;5010;45.080;7.634;2024-02-15T16:10:29;13.10;99.90
9943;DHT22;5010;45.080;7.634;2024-02-15T16:12:56;13.10;3.20
9943;DHT22;5010;45.080;7.634;2024-02-15T16:15:26;13.00;1.00
9943;DHT22;5010;45.080;7.634;2024-02-15T16:17:54;13.00;18.70
9943;DHT22;5010;45.080;7.634;2024-02-15T16:20:21;12.90;1.00
9943;DHT22;5010;45.080;7.634;2024-02-15T16:22:51;12.90;1.00
9943;DHT22;5010;45.080;7.634;2024-02-15T16:25:18;12.80;1.00
9943;DHT22;5010;45.080;7.634;2024-02-15T16:27:46;12.80;93.80
9943;DHT22;5010;45.080;7.634;2024-02-15T16:30:14;12.60;99.90
9943;DHT22;5010;45.080;7.634;2024-02-15T16:32:42;12.40;1.00
9943;DHT22;5010;45.080;7.634;2024-02-15T16:35:10;12.30;99.90
9943;DHT22;5010;45.080;7.634;2024-02-15T16:37:39;12.20;99.90